Time;durP1;ratioP1;P1;durP2;ratioP2;P2;SDS_P1;SDS_P2;PMS_P1;PMS_P2;Temp;Humidity;BMP_temperature;BMP_pressure;BME280_temperature;BME280_humidity;BME280_pressure;Samples;Min_cycle;Max_cycle;Signal;HPM_P1;HPM_P2
2024/01/18 00:02:27;;;;;;;33.88;25.77;;;-1.70;99.90;;;;;;7371875;19;20030;-60
2024/01/18 00:05:07;;;;;;;31.25;25.50;;;-1.70;99.90;;;;;;7383583;19;20018;-65
2024/01/18 00:07:45;;;;;;;30.48;24.48;;;-1.70;99.90;;;;;;7390812;19;20044;-65
2024/01/18 00:10:26;;;;;;;28.58;23.00;;;-1.70;99.90;;;;;;7391179;19;20011;-65
2024/01/18 00:13:04;;;;;;;26.48;21.77;;;-1.60;99.90;;;;;;7392724;19;20022;-65
2024/01/18 00:15:42;;;;;;;29.50;21.88;;;-1.60;99.90;;;;;;7382890;19;20022;-60
2024/01/18 00:18:21;;;;;;;31.52;22.17;;;-1.60;99.90;;;;;;7379403;19;20015;-60
2024/01/18 00:20:59;;;;;;;24.55;20.65;;;-1.60;99.90;;;;;;7376158;19;20039;-60
2024/01/18 00:23:25;;;;;;;29.02;21.20;;;-1.50;99.90;;;;;;7382067;19;20562;-65
2024/01/18 00:26:03;;;;;;;24.55;19.52;;;-1.50;99.90;;;;;;7394586;19;20030;-65
2024/01/18 00:28:42;;;;;;;24.77;16.95;;;-1.50;99.90;;;;;;7390303;19;20102;-65
2024/01/18 00:31:20;;;;;;;27.30;18.50;;;-1.50;99.90;;;;;;7389242;19;20437;-59
2024/01/18 00:33:58;;;;;;;20.77;16.55;;;-1.40;99.90;;;;;;7376479;19;20518;-65
2024/01/18 00:36:36;;;;;;;20.45;15.50;;;-1.40;99.90;;;;;;7393594;19;20043;-65
2024/01/18 00:39:18;;;;;;;20.13;15.50;;;-1.40;99.90;;;;;;7390528;19;20030;-60
2024/01/18 00:41:56;;;;;;;18.92;15.50;;;-1.40;99.90;;;;;;7374621;19;20022;-60
2024/01/18 00:44:35;;;;;;;20.00;14.82;;;-1.40;99.90;;;;;;7370922;19;20018;-60
2024/01/18 00:47:01;;;;;;;19.10;14.57;;;-1.40;99.90;;;;;;7375400;19;20019;-60
2024/01/18 00:49:28;;;;;;;22.13;15.02;;;-1.40;99.90;;;;;;7377502;19;20043;-60
2024/01/18 00:52:06;;;;;;;22.05;15.45;;;-1.50;99.90;;;;;;7376043;19;20113;-60
2024/01/18 00:54:33;;;;;;;21.48;16.30;;;-1.50;99.90;;;;;;7379900;19;20018;-60
2024/01/18 00:57:11;;;;;;;19.98;15.25;;;-1.60;99.90;;;;;;7384630;19;20499;-61
2024/01/18 00:59:51;;;;;;;18.67;14.65;;;-1.60;99.90;;;;;;7374145;19;21225;-60
2024/01/18 01:02:29;;;;;;;17.80;14.35;;;-1.60;99.90;;;;;;7372853;19;20018;-60
2024/01/18 01:04:55;;;;;;;20.20;14.52;;;-1.70;99.90;;;;;;7375257;19;20034;-60
2024/01/18 01:07:33;;;;;;;21.90;14.05;;;-1.70;99.90;;;;;;7378266;19;20475;-66
2024/01/18 01:10:11;;;;;;;18.00;13.75;;;-1.70;99.90;;;;;;7390115;19;20019;-66
2024/01/18 01:12:38;;;;;;;21.58;13.48;;;-1.70;99.90;;;;;;7387591;19;20022;-65
2024/01/18 01:15:16;;;;;;;17.60;12.70;;;-1.70;99.90;;;;;;7389941;19;20031;-66
2024/01/18 01:17:54;;;;;;;19.27;12.43;;;-1.70;99.90;;;;;;7388004;19;20078;-60
2024/01/18 01:20:32;;;;;;;19.27;12.25;;;-1.70;99.90;;;;;;7377990;19;20014;-65
2024/01/18 01:23:11;;;;;;;21.23;12.15;;;-1.60;99.90;;;;;;7388580;19;20062;-65
2024/01/18 01:25:37;;;;;;;15.40;11.00;;;-1.60;99.90;;;;;;7387158;19;20094;-65
2024/01/18 01:28:15;;;;;;;18.98;11.93;;;-1.60;99.90;;;;;;7389115;19;20039;-66
2024/01/18 01:30:41;;;;;;;22.25;13.90;;;-1.60;99.90;;;;;;7390978;19;20018;-66
2024/01/18 01:33:19;;;;;;;20.52;12.35;;;-1.60;99.90;;;;;;7381128;19;20014;-60
2024/01/18 01:35:58;;;;;;;15.50;10.30;;;-1.60;99.90;;;;;;7373628;19;20023;-60
2024/01/18 01:38:36;;;;;;;13.23;8.95;;;-1.50;99.90;;;;;;7367030;19;20050;-60
2024/01/18 01:41:14;;;;;;;12.00;7.93;;;-1.60;99.90;;;;;;7373569;19;20026;-65
2024/01/18 01:43:57;;;;;;;15.63;8.82;;;-1.50;99.90;;;;;;7382443;19;20673;-65
2024/01/18 01:46:24;;;;;;;15.35;8.50;;;-1.60;99.90;;;;;;7383313;19;20023;-66
2024/01/18 01:48:55;;;;;;;14.10;8.27;;;-1.50;99.90;;;;;;7383305;19;20056;-65
2024/01/18 01:51:22;;;;;;;11.90;7.60;;;-1.60;99.90;;;;;;7384545;19;20022;-66
2024/01/18 01:54:04;;;;;;;12.10;7.55;;;-1.50;99.90;;;;;;7386419;19;20370;-66
2024/01/18 01:56:45;;;;;;;13.13;7.25;;;-1.50;99.90;;;;;;7382427;19;20031;-66
2024/01/18 01:59:13;;;;;;;11.80;7.38;;;-1.60;99.90;;;;;;7379391;19;20518;-66
2024/01/18 02:01:42;;;;;;;13.90;7.10;;;-1.60;99.90;;;;;;7378945;19;20371;-66
2024/01/18 02:04:23;;;;;;;10.98;7.88;;;-1.60;99.90;;;;;;7383773;19;20395;-66
2024/01/18 02:06:56;;;;;;;10.73;7.20;;;-1.60;99.90;;;;;;7376833;19;20539;-60
2024/01/18 02:09:35;;;;;;;13.35;7.03;;;-1.60;99.90;;;;;;7378748;19;20029;-65
2024/01/18 02:12:14;;;;;;;11.75;5.80;;;-1.70;99.90;;;;;;7382328;19;20018;-60
2024/01/18 02:14:53;;;;;;;8.63;5.97;;;-1.60;99.90;;;;;;7381549;19;20018;-66
2024/01/18 02:17:31;;;;;;;14.82;5.97;;;-1.60;99.90;;;;;;7373387;19;20026;-60
2024/01/18 02:19:58;;;;;;;10.35;6.70;;;-1.60;99.90;;;;;;7373739;19;20023;-60
2024/01/18 02:22:42;;;;;;;11.48;6.18;;;-1.60;99.90;;;;;;7365153;19;20042;-60
2024/01/18 02:25:27;;;;;;;10.02;5.75;;;-1.70;99.90;;;;;;7375876;19;20101;-60
2024/01/18 02:28:05;;;;;;;9.25;5.85;;;-1.70;99.90;;;;;;7372100;19;20025;-59
2024/01/18 02:30:31;;;;;;;11.70;6.03;;;-1.70;99.90;;;;;;7373249;19;20074;-60
2024/01/18 02:33:10;;;;;;;12.10;5.68;;;-1.70;99.90;;;;;;7374854;19;20651;-60
2024/01/18 02:35:49;;;;;;;9.73;5.50;;;-1.80;99.90;;;;;;7372330;19;20037;-60
2024/01/18 02:38:28;;;;;;;10.10;5.28;;;-1.80;99.90;;;;;;7368745;19;20676;-59
2024/01/18 02:41:06;;;;;;;12.88;6.07;;;-1.80;99.90;;;;;;7370794;19;20019;-60
2024/01/18 02:43:44;;;;;;;11.82;5.82;;;-1.90;99.90;;;;;;7375371;19;20022;-60
2024/01/18 02:46:23;;;;;;;9.40;5.05;;;-1.80;99.90;;;;;;7372899;19;20033;-60
2024/01/18 02:49:01;;;;;;;10.98;5.40;;;-1.80;99.90;;;;;;7370413;19;20098;-59
2024/01/18 02:51:39;;;;;;;7.15;5.10;;;-1.90;99.90;;;;;;7368589;19;20042;-59
2024/01/18 02:54:18;;;;;;;11.77;5.10;;;-1.90;99.90;;;;;;7374930;19;20041;-60
2024/01/18 02:56:44;;;;;;;13.30;5.82;;;-2.00;99.90;;;;;;7372462;19;20018;-59
2024/01/18 02:59:22;;;;;;;10.57;5.78;;;-2.00;99.90;;;;;;7366052;19;20402;-60
2024/01/18 03:01:49;;;;;;;10.95;4.97;;;-2.00;99.90;;;;;;7372251;19;20054;-59
2024/01/18 03:04:15;;;;;;;7.28;5.43;;;-2.10;99.90;;;;;;7372121;19;20014;-60
2024/01/18 03:06:54;;;;;;;10.07;5.18;;;-2.10;99.90;;;;;;7374555;19;20022;-60
2024/01/18 03:09:32;;;;;;;9.55;5.05;;;-2.20;99.90;;;;;;7373414;19;20768;-60
2024/01/18 03:12:10;;;;;;;6.45;4.35;;;-2.10;99.90;;;;;;7370925;19;20038;-59
2024/01/18 03:14:48;;;;;;;10.85;5.82;;;-2.10;99.90;;;;;;7376704;19;20126;-66
2024/01/18 03:17:14;;;;;;;10.15;5.60;;;-2.20;99.90;;;;;;7381911;19;20458;-66
2024/01/18 03:19:52;;;;;;;7.70;5.35;;;-2.20;99.90;;;;;;7377169;19;20048;-66
2024/01/18 03:22:31;;;;;;;10.05;6.20;;;-2.30;99.90;;;;;;7376279;19;20015;-67
2024/01/18 03:24:57;;;;;;;11.52;7.32;;;-2.30;99.90;;;;;;7375680;19;20018;-67
2024/01/18 03:27:35;;;;;;;10.32;6.80;;;-2.50;99.90;;;;;;7370603;19;20789;-60
2024/01/18 03:30:01;;;;;;;10.35;7.30;;;-2.50;99.90;;;;;;7373087;19;20018;-60
2024/01/18 03:32:39;;;;;;;9.98;5.97;;;-2.50;99.90;;;;;;7372204;19;20026;-60
2024/01/18 03:35:06;;;;;;;11.43;6.68;;;-2.60;99.90;;;;;;7374155;19;20100;-60
2024/01/18 03:37:44;;;;;;;15.15;7.07;;;-2.60;99.90;;;;;;7370768;19;20054;-60
2024/01/18 03:40:12;;;;;;;11.07;6.57;;;-2.60;99.90;;;;;;7372432;19;20037;-60
2024/01/18 03:42:51;;;;;;;9.52;6.65;;;-2.70;99.90;;;;;;7370050;19;20011;-60
2024/01/18 03:45:17;;;;;;;9.32;6.53;;;-2.60;99.90;;;;;;7373074;19;20086;-60
2024/01/18 03:47:43;;;;;;;12.73;6.15;;;-2.70;99.90;;;;;;7368437;19;20022;-60
2024/01/18 03:50:21;;;;;;;9.90;5.72;;;-2.70;99.90;;;;;;7366623;19;20025;-60
2024/01/18 03:53:00;;;;;;;12.73;5.80;;;-2.70;99.90;;;;;;7371610;19;20022;-60
2024/01/18 03:55:38;;;;;;;9.13;6.22;;;-2.60;99.90;;;;;;7374524;19;20669;-67
2024/01/18 03:58:16;;;;;;;14.05;5.75;;;-2.70;99.90;;;;;;7374234;19;20018;-67
2024/01/18 04:00:54;;;;;;;10.50;6.53;;;-2.70;99.90;;;;;;7366573;19;20022;-67
2024/01/18 04:03:21;;;;;;;10.80;6.65;;;-2.70;99.90;;;;;;7371802;19;20044;-67
2024/01/18 04:05:59;;;;;;;9.50;5.65;;;-2.70;99.90;;;;;;7372672;19;20498;-68
2024/01/18 04:08:38;;;;;;;10.43;6.40;;;-2.80;99.90;;;;;;7373241;19;20052;-68
2024/01/18 04:11:17;;;;;;;8.98;5.65;;;-2.80;99.90;;;;;;7367666;19;20033;-67
2024/01/18 04:13:55;;;;;;;10.60;5.95;;;-2.80;99.90;;;;;;7372499;19;20022;-68
2024/01/18 04:16:21;;;;;;;11.18;6.35;;;-2.80;99.90;;;;;;7370656;19;20129;-60
2024/01/18 04:18:59;;;;;;;13.07;6.88;;;-2.80;99.90;;;;;;7373764;19;20022;-68
2024/01/18 04:21:38;;;;;;;12.30;6.30;;;-2.80;99.90;;;;;;7371659;19;20018;-68
2024/01/18 04:24:22;;;;;;;9.95;5.68;;;-2.90;99.90;;;;;;7365966;19;20515;-67
2024/01/18 04:27:01;;;;;;;9.65;5.97;;;-2.90;99.90;;;;;;7371819;19;20468;-60
2024/01/18 04:29:28;;;;;;;8.40;6.03;;;-2.80;99.90;;;;;;7367970;19;20022;-60
2024/01/18 04:32:06;;;;;;;10.40;5.88;;;-2.70;99.90;;;;;;7369400;19;20098;-60
2024/01/18 04:34:44;;;;;;;12.82;5.90;;;-2.60;99.90;;;;;;7367947;19;20022;-60
2024/01/18 04:37:22;;;;;;;9.63;5.50;;;-2.50;99.90;;;;;;7370911;19;20018;-60
2024/01/18 04:39:48;;;;;;;8.73;5.65;;;-2.40;99.90;;;;;;7368011;19;20355;-60
2024/01/18 04:42:16;;;;;;;9.80;5.38;;;-2.40;99.90;;;;;;7368809;19;20030;-59
2024/01/18 04:44:54;;;;;;;7.90;5.13;;;-2.40;99.90;;;;;;7367843;19;20021;-60
2024/01/18 04:47:32;;;;;;;10.35;4.80;;;-2.30;99.90;;;;;;7368737;19;20793;-67
2024/01/18 04:50:11;;;;;;;10.35;5.53;;;-2.30;99.90;;;;;;7376519;19;20038;-67
2024/01/18 04:52:50;;;;;;;7.50;5.03;;;-2.20;99.90;;;;;;7378092;19;20046;-67
2024/01/18 04:55:16;;;;;;;13.98;5.50;;;-2.30;99.90;;;;;;7381559;19;20078;-67
2024/01/18 04:57:56;;;;;;;6.82;4.38;;;-2.20;99.90;;;;;;7379206;19;20042;-67
2024/01/18 05:00:35;;;;;;;9.90;3.92;;;-2.20;99.90;;;;;;7375732;19;20007;-60
2024/01/18 05:03:13;;;;;;;6.50;3.72;;;-2.20;99.90;;;;;;7375650;19;20035;-67
2024/01/18 05:05:52;;;;;;;4.93;3.47;;;-2.20;99.90;;;;;;7380137;19;20051;-67
2024/01/18 05:08:31;;;;;;;11.75;3.80;;;-2.20;99.90;;;;;;7376058;19;20011;-68
2024/01/18 05:11:10;;;;;;;7.72;2.85;;;-2.20;99.90;;;;;;7375849;19;20023;-68
2024/01/18 05:13:49;;;;;;;5.35;2.78;;;-2.30;99.90;;;;;;7378580;19;20038;-68
2024/01/18 05:16:28;;;;;;;7.45;3.78;;;-2.40;99.90;;;;;;7373632;19;20015;-67
2024/01/18 05:19:10;;;;;;;6.30;3.20;;;-2.40;99.90;;;;;;7376519;19;20022;-67
2024/01/18 05:21:38;;;;;;;7.00;3.50;;;-2.50;99.90;;;;;;7375705;19;20081;-68
2024/01/18 05:24:05;;;;;;;6.75;3.53;;;-2.50;99.90;;;;;;7376569;19;20098;-67
2024/01/18 05:26:45;;;;;;;8.60;3.85;;;-2.50;99.90;;;;;;7375520;19;20526;-60
2024/01/18 05:29:23;;;;;;;10.27;3.30;;;-2.60;99.90;;;;;;7378912;19;20375;-60
2024/01/18 05:32:09;;;;;;;5.57;3.00;;;-2.60;99.90;;;;;;7375815;19;20687;-63
2024/01/18 05:34:35;;;;;;;6.18;3.05;;;-2.60;99.90;;;;;;7376066;19;20082;-62
2024/01/18 05:37:13;;;;;;;8.05;2.95;;;-2.60;99.90;;;;;;7372964;19;20030;-61
2024/01/18 05:39:52;;;;;;;6.53;2.88;;;-2.70;99.90;;;;;;7377468;19;20078;-61
2024/01/18 05:42:30;;;;;;;6.63;3.03;;;-2.70;99.90;;;;;;7367996;19;20029;-61
2024/01/18 05:45:08;;;;;;;4.22;3.00;;;-2.70;99.90;;;;;;7365666;19;20108;-62
2024/01/18 05:47:46;;;;;;;5.32;2.55;;;-2.80;99.90;;;;;;7375041;19;20037;-62
2024/01/18 05:50:12;;;;;;;5.50;2.95;;;-2.70;99.90;;;;;;7376076;19;21338;-62
2024/01/18 05:52:51;;;;;;;5.78;3.13;;;-2.70;99.90;;;;;;7377767;19;20026;-61
2024/01/18 05:55:17;;;;;;;6.47;3.15;;;-2.70;99.90;;;;;;7371366;19;20022;-62
2024/01/18 05:57:43;;;;;;;6.18;2.60;;;-2.70;99.90;;;;;;7377727;19;20502;-62
2024/01/18 06:00:24;;;;;;;4.07;2.67;;;-2.70;99.90;;;;;;7375298;19;20112;-62
2024/01/18 06:03:02;;;;;;;7.05;2.65;;;-2.70;99.90;;;;;;7374333;19;20090;-61
2024/01/18 06:05:40;;;;;;;4.22;2.47;;;-2.70;99.90;;;;;;7376048;19;20019;-62
2024/01/18 06:08:06;;;;;;;5.80;2.63;;;-2.70;99.90;;;;;;7373953;19;20122;-62
2024/01/18 06:10:44;;;;;;;5.40;3.03;;;-2.70;99.90;;;;;;7374823;19;20018;-69
2024/01/18 06:13:23;;;;;;;6.45;2.80;;;-2.70;99.90;;;;;;7377868;19;20019;-70
2024/01/18 06:15:50;;;;;;;7.30;2.53;;;-2.60;99.90;;;;;;7375179;19;20018;-68
2024/01/18 06:18:28;;;;;;;5.78;2.58;;;-2.60;99.90;;;;;;7378242;19;20014;-62
2024/01/18 06:21:10;;;;;;;7.13;2.70;;;-2.50;99.90;;;;;;7374166;19;20498;-62
2024/01/18 06:23:49;;;;;;;6.32;2.20;;;-2.50;99.90;;;;;;7374092;19;20010;-62
2024/01/18 06:26:16;;;;;;;3.80;1.83;;;-2.50;99.90;;;;;;7372663;19;20078;-69
2024/01/18 06:28:55;;;;;;;3.33;2.08;;;-2.40;99.90;;;;;;7374778;19;20026;-69
2024/01/18 06:31:33;;;;;;;3.80;1.98;;;-2.40;99.90;;;;;;7374706;19;20509;-70
2024/01/18 06:34:12;;;;;;;4.97;2.30;;;-2.40;99.90;;;;;;7379643;19;20010;-68
2024/01/18 06:36:39;;;;;;;7.15;2.28;;;-2.40;99.90;;;;;;7368724;19;20026;-60
2024/01/18 06:39:17;;;;;;;4.15;2.55;;;-2.30;99.90;;;;;;7374994;19;20018;-60
2024/01/18 06:41:43;;;;;;;5.40;2.53;;;-2.30;99.90;;;;;;7369462;19;20086;-67
2024/01/18 06:44:21;;;;;;;14.85;3.80;;;-2.30;99.90;;;;;;7373400;19;20063;-67
2024/01/18 06:47:00;;;;;;;12.52;4.18;;;-2.30;99.90;;;;;;7367633;19;20086;-69
2024/01/18 06:49:27;;;;;;;3.55;2.22;;;-2.30;99.90;;;;;;7373355;19;20102;-67
2024/01/18 06:52:05;;;;;;;4.53;2.72;;;-2.30;99.90;;;;;;7378586;19;20058;-68
2024/01/18 06:54:44;;;;;;;9.30;2.53;;;-2.20;99.90;;;;;;7374593;19;20812;-60
2024/01/18 06:57:10;;;;;;;5.72;2.58;;;-2.30;99.90;;;;;;7374864;19;20042;-61
2024/01/18 06:59:48;;;;;;;7.90;2.85;;;-2.20;99.90;;;;;;7375463;19;20018;-67
2024/01/18 07:02:15;;;;;;;8.95;3.10;;;-2.20;99.90;;;;;;7372234;19;20924;-60
2024/01/18 07:04:53;;;;;;;8.35;3.47;;;-2.20;99.90;;;;;;7372691;19;20018;-60
2024/01/18 07:07:20;;;;;;;10.98;3.45;;;-2.20;99.90;;;;;;7374353;19;20046;-67
2024/01/18 07:09:46;;;;;;;9.57;3.65;;;-2.30;99.90;;;;;;7370899;19;20014;-69
2024/01/18 07:12:24;;;;;;;7.07;2.55;;;-2.20;99.90;;;;;;7371135;19;20644;-68
2024/01/18 07:15:09;;;;;;;6.32;2.17;;;-2.30;99.90;;;;;;7373399;19;20068;-60
2024/01/18 07:17:35;;;;;;;7.55;2.22;;;-2.30;99.90;;;;;;7373877;19;20475;-68
2024/01/18 07:20:14;;;;;;;5.90;2.42;;;-2.30;99.90;;;;;;7375445;19;20424;-62
2024/01/18 07:22:52;;;;;;;5.53;2.80;;;-2.30;99.90;;;;;;7368091;19;20119;-62
2024/01/18 07:25:30;;;;;;;4.03;2.63;;;-2.30;99.90;;;;;;7372130;19;20039;-67
2024/01/18 07:28:10;;;;;;;5.35;1.70;;;-2.30;99.90;;;;;;7376195;19;20022;-68
2024/01/18 07:30:37;;;;;;;4.75;1.80;;;-2.30;99.90;;;;;;7369958;19;20443;-68
2024/01/18 07:33:03;;;;;;;4.50;1.60;;;-2.40;99.90;;;;;;7376103;19;20025;-68
2024/01/18 07:35:42;;;;;;;6.90;1.90;;;-2.40;99.90;;;;;;7371274;19;20019;-61
2024/01/18 07:38:20;;;;;;;7.20;3.35;;;-2.50;99.90;;;;;;7376297;19;20022;-60
2024/01/18 07:40:58;;;;;;;8.15;4.28;;;-2.40;99.90;;;;;;7373883;19;20479;-66
2024/01/18 07:43:36;;;;;;;4.82;2.60;;;-2.40;99.90;;;;;;7370236;19;20077;-66
2024/01/18 07:46:15;;;;;;;9.80;4.15;;;-2.40;99.90;;;;;;7373008;19;20057;-65
2024/01/18 07:48:53;;;;;;;6.78;2.25;;;-2.50;99.90;;;;;;7374621;19;20790;-60
2024/01/18 07:51:31;;;;;;;6.70;2.50;;;-2.50;99.90;;;;;;7370125;19;20405;-60
2024/01/18 07:54:09;;;;;;;4.55;2.28;;;-2.60;99.90;;;;;;7373504;19;20025;-60
2024/01/18 07:56:47;;;;;;;4.57;2.20;;;-2.60;99.90;;;;;;7372819;19;20495;-67
2024/01/18 07:59:26;;;;;;;6.32;2.75;;;-2.60;99.90;;;;;;7373554;19;20822;-60
2024/01/18 08:02:04;;;;;;;5.75;2.63;;;-2.60;99.90;;;;;;7365306;19;20023;-60
2024/01/18 08:04:42;;;;;;;6.53;2.88;;;-2.60;99.90;;;;;;7369130;19;20037;-66
2024/01/18 08:07:20;;;;;;;7.30;3.28;;;-2.60;99.90;;;;;;7371262;19;20014;-60
2024/01/18 08:09:59;;;;;;;5.57;2.88;;;-2.60;99.90;;;;;;7370519;19;20041;-65
2024/01/18 08:12:37;;;;;;;4.80;2.88;;;-2.50;99.90;;;;;;7372178;19;20734;-59
2024/01/18 08:15:15;;;;;;;5.78;2.88;;;-2.40;99.90;;;;;;7374882;19;20526;-62
2024/01/18 08:17:45;;;;;;;6.95;3.22;;;-2.20;99.90;;;;;;7369981;19;20063;-65
2024/01/18 08:20:23;;;;;;;6.95;3.10;;;-1.90;99.90;;;;;;7373551;19;20025;-65
2024/01/18 08:23:02;;;;;;;7.65;3.60;;;-1.80;99.90;;;;;;7370281;19;20044;-60
2024/01/18 08:25:28;;;;;;;9.75;2.90;;;-1.60;99.90;;;;;;7379782;19;20426;-62
2024/01/18 08:27:56;;;;;;;5.50;2.63;;;-1.40;99.90;;;;;;7377457;19;20363;-66
2024/01/18 08:30:22;;;;;;;8.20;2.97;;;-1.30;99.90;;;;;;7374668;19;20023;-68
2024/01/18 08:32:49;;;;;;;6.18;2.50;;;-1.20;99.90;;;;;;7377240;19;20018;-67
2024/01/18 08:35:16;;;;;;;7.07;2.70;;;-1.10;99.90;;;;;;7378822;19;20026;-61
2024/01/18 08:37:42;;;;;;;3.58;2.60;;;-1.20;99.90;;;;;;7378418;19;20018;-61
2024/01/18 08:40:12;;;;;;;5.05;2.42;;;-1.30;99.90;;;;;;7377436;19;20658;-67
2024/01/18 08:42:38;;;;;;;3.67;2.30;;;-1.50;99.90;;;;;;7377574;19;20026;-61
2024/01/18 08:45:05;;;;;;;7.18;2.33;;;-1.60;99.90;;;;;;7375065;19;20014;-60
2024/01/18 08:47:32;;;;;;;15.75;9.52;;;-1.50;99.90;;;;;;7377117;19;20015;-61
2024/01/18 08:49:59;;;;;;;9.55;2.72;;;-1.30;99.90;;;;;;7375662;19;20117;-67
2024/01/18 08:52:25;;;;;;;4.80;2.20;;;-0.90;99.90;;;;;;7377490;19;20014;-61
2024/01/18 08:54:51;;;;;;;5.63;2.63;;;-0.30;99.90;;;;;;7378957;19;20094;-61
2024/01/18 08:57:18;;;;;;;6.63;1.80;;;0.20;99.90;;;;;;7377075;19;20683;-61
2024/01/18 08:59:44;;;;;;;4.57;2.30;;;0.80;99.90;;;;;;7372901;19;20805;-61
2024/01/18 09:02:11;;;;;;;3.45;1.90;;;0.90;99.90;;;;;;7377252;19;20439;-61
2024/01/18 09:04:38;;;;;;;5.32;1.95;;;1.20;99.90;;;;;;7378178;19;20205;-68
2024/01/18 09:07:04;;;;;;;7.13;1.98;;;1.50;99.90;;;;;;7376461;19;20024;-68
2024/01/18 09:09:30;;;;;;;3.58;1.70;;;1.60;99.90;;;;;;7376620;19;20369;-69
2024/01/18 09:11:57;;;;;;;5.32;1.50;;;1.60;99.90;;;;;;7378067;19;20023;-60
2024/01/18 09:14:24;;;;;;;5.40;1.65;;;1.70;99.90;;;;;;7377347;19;20022;-61
2024/01/18 09:16:50;;;;;;;6.03;1.75;;;1.60;99.90;;;;;;7375400;19;20014;-61
2024/01/18 09:19:17;;;;;;;5.28;1.90;;;1.70;99.90;;;;;;7377410;19;20018;-61
2024/01/18 09:21:44;;;;;;;4.35;1.52;;;1.80;99.90;;;;;;7376285;19;20702;-61
2024/01/18 09:24:11;;;;;;;4.15;1.70;;;1.90;99.90;;;;;;7378170;19;20026;-69
2024/01/18 09:26:37;;;;;;;4.18;1.50;;;1.80;99.90;;;;;;7376935;19;20018;-69
2024/01/18 09:29:04;;;;;;;4.93;1.90;;;2.00;99.90;;;;;;7377777;19;20026;-71
2024/01/18 09:31:30;;;;;;;7.07;2.35;;;2.10;99.90;;;;;;7379950;19;20086;-70
2024/01/18 09:33:57;;;;;;;3.72;1.73;;;2.10;99.90;;;;;;7380137;19;20662;-70
2024/01/18 09:36:24;;;;;;;3.88;1.75;;;2.20;99.90;;;;;;7374884;19;20089;-70
2024/01/18 09:38:50;;;;;;;3.05;1.70;;;2.40;99.90;;;;;;7371845;19;20025;-71
2024/01/18 09:41:18;;;;;;;4.10;1.50;;;2.70;99.90;;;;;;7378620;19;20711;-61
2024/01/18 09:43:45;;;;;;;6.35;1.80;;;2.90;99.90;;;;;;7373516;19;20033;-62
2024/01/18 09:46:12;;;;;;;5.63;1.70;;;2.60;99.90;;;;;;7378359;19;20026;-71
2024/01/18 09:48:39;;;;;;;6.75;1.55;;;2.70;99.90;;;;;;7371957;19;20014;-71
2024/01/18 09:51:06;;;;;;;1.80;1.05;;;2.80;99.90;;;;;;7375938;19;20022;-71
2024/01/18 09:53:33;;;;;;;5.35;1.35;;;2.80;99.90;;;;;;7377868;19;20025;-71
2024/01/18 09:56:28;;;;;;;4.15;1.17;;;3.10;99.90;;;;;;7377292;19;20385;-71
2024/01/18 09:58:55;;;;;;;5.25;1.95;;;3.80;99.90;;;;;;7373301;19;20848;-71
2024/01/18 10:01:24;;;;;;;4.72;1.35;;;4.00;99.90;;;;;;7374854;19;20022;-62
2024/01/18 10:04:12;;;;;;;3.75;1.10;;;4.50;99.90;;;;;;7374183;19;20034;-63
2024/01/18 10:06:39;;;;;;;4.90;1.23;;;4.60;99.90;;;;;;7373869;19;20019;-62
2024/01/18 10:09:05;;;;;;;4.15;1.27;;;5.10;99.90;;;;;;7373258;19;20018;-63
2024/01/18 10:11:32;;;;;;;4.93;1.13;;;5.40;99.90;;;;;;7372611;19;20038;-63
2024/01/18 10:13:59;;;;;;;6.28;1.50;;;5.30;99.90;;;;;;7372020;19;20014;-63
2024/01/18 10:16:27;;;;;;;4.50;1.50;;;5.20;99.90;;;;;;7372911;19;20180;-72
2024/01/18 10:18:55;;;;;;;5.03;1.30;;;5.00;99.90;;;;;;7371868;19;20032;-72
2024/01/18 10:21:23;;;;;;;8.40;1.85;;;4.40;99.90;;;;;;7374927;19;20031;-72
2024/01/18 10:23:51;;;;;;;5.35;1.45;;;4.20;99.90;;;;;;7375140;19;20025;-63
2024/01/18 10:26:21;;;;;;;4.13;1.50;;;4.20;99.90;;;;;;7377321;19;20014;-63
2024/01/18 10:28:49;;;;;;;2.90;1.15;;;4.30;99.90;;;;;;7375817;19;20376;-64
2024/01/18 10:31:15;;;;;;;10.00;5.70;;;4.00;99.90;;;;;;7377323;19;20022;-61
2024/01/18 10:33:42;;;;;;;4.25;1.40;;;4.20;99.90;;;;;;7374427;19;20487;-60
2024/01/18 10:36:09;;;;;;;2.70;1.30;;;4.30;99.90;;;;;;7376463;19;20029;-63
2024/01/18 10:38:38;;;;;;;6.03;2.03;;;4.70;99.90;;;;;;7373205;19;20058;-61
2024/01/18 10:41:07;;;;;;;9.20;3.38;;;5.30;99.90;;;;;;7375319;19;20041;-62
2024/01/18 10:43:37;;;;;;;;;;;5.80;99.90;;;;;;7379101;19;20656;-66
2024/01/18 10:46:04;;;;;;;6.65;2.65;;;6.00;99.90;;;;;;7382087;19;19923;-65
2024/01/18 10:48:35;;;;;;;4.57;1.70;;;5.90;99.90;;;;;;7383973;19;20022;-66
2024/01/18 10:51:05;;;;;;;4.03;1.65;;;5.80;99.90;;;;;;7383526;19;20018;-66
2024/01/18 10:53:36;;;;;;;4.15;1.52;;;5.60;99.90;;;;;;7380829;19;20033;-66
2024/01/18 10:56:03;;;;;;;10.85;1.75;;;5.30;99.90;;;;;;7379269;19;20018;-65
2024/01/18 10:58:30;;;;;;;5.80;1.65;;;5.10;99.90;;;;;;7379799;19;21382;-65
2024/01/18 11:00:57;;;;;;;3.00;1.25;;;5.10;99.90;;;;;;7376609;19;20025;-66
2024/01/18 11:03:24;;;;;;;5.20;1.70;;;5.10;99.90;;;;;;7380326;19;20022;-66
2024/01/18 11:05:51;;;;;;;3.30;1.17;;;5.20;99.90;;;;;;7376963;19;20010;-61
2024/01/18 11:08:18;;;;;;;3.25;1.30;;;5.30;99.90;;;;;;7372703;19;20030;-62
2024/01/18 11:10:46;;;;;;;5.55;1.85;;;6.00;99.90;;;;;;7371889;19;20512;-62
2024/01/18 11:13:17;;;;;;;5.90;1.52;;;6.70;99.90;;;;;;7374843;19;20026;-62
2024/01/18 11:15:44;;;;;;;4.28;1.27;;;7.50;99.90;;;;;;7373546;19;20465;-62
2024/01/18 11:18:12;;;;;;;3.67;1.40;;;8.30;99.90;;;;;;7371518;19;20078;-62
2024/01/18 11:21:09;;;;;;;1.85;0.95;;;7.90;99.90;;;;;;7374133;19;20010;-62
2024/01/18 11:23:36;;;;;;;5.88;1.42;;;8.00;99.90;;;;;;7372817;19;20010;-62
2024/01/18 11:26:08;;;;;;;4.38;0.93;;;8.10;99.90;;;;;;7376842;19;20026;-62
2024/01/18 11:28:35;;;;;;;4.47;1.00;;;7.60;99.90;;;;;;7371753;19;20025;-62
2024/01/18 11:31:01;;;;;;;3.72;1.23;;;6.60;99.90;;;;;;7375847;19;20119;-65
2024/01/18 11:33:28;;;;;;;4.78;1.60;;;6.20;99.90;;;;;;7373449;19;20927;-64
2024/01/18 11:35:56;;;;;;;5.97;1.35;;;6.20;99.90;;;;;;7374369;19;20019;-61
2024/01/18 11:38:32;;;;;;;3.63;1.00;;;6.20;99.90;;;;;;7366621;19;20014;-61
2024/01/18 11:41:18;;;;;;;3.75;1.20;;;6.60;99.90;;;;;;7375509;19;20491;-62
2024/01/18 11:43:56;;;;;;;3.15;0.90;;;6.60;99.90;;;;;;7374715;19;20018;-65
2024/01/18 11:46:45;;;;;;;3.88;1.55;;;6.70;99.90;;;;;;7372828;19;20387;-65
2024/01/18 11:49:12;;;;;;;6.05;1.10;;;7.20;99.90;;;;;;7370999;19;20352;-65
2024/01/18 11:51:38;;;;;;;8.10;1.48;;;7.90;99.90;;;;;;7371608;19;20018;-65
2024/01/18 11:54:05;;;;;;;5.22;1.23;;;8.70;99.90;;;;;;7374742;19;20070;-65
2024/01/18 11:56:35;;;;;;;2.60;0.82;;;8.70;99.90;;;;;;7373362;19;20746;-65
2024/01/18 11:59:01;;;;;;;5.57;1.02;;;8.70;99.90;;;;;;7377894;19;20025;-65
2024/01/18 12:01:28;;;;;;;4.78;1.67;;;9.10;99.90;;;;;;7377697;19;20050;-65
2024/01/18 12:03:54;;;;;;;6.85;2.75;;;9.00;99.90;;;;;;7382262;19;20041;-65
2024/01/18 12:06:26;;;;;;;11.15;3.08;;;9.10;99.90;;;;;;7379647;19;20042;-64
2024/01/18 12:08:53;;;;;;;8.77;1.65;;;8.30;99.90;;;;;;7381185;19;20026;-64
2024/01/18 12:11:20;;;;;;;11.80;4.10;;;7.60;99.90;;;;;;7379400;19;20014;-64
2024/01/18 12:13:47;;;;;;;6.97;2.33;;;7.70;99.90;;;;;;7379381;19;20019;-64
2024/01/18 12:16:13;;;;;;;7.05;2.22;;;8.70;99.90;;;;;;7380813;19;20466;-64
2024/01/18 12:18:43;;;;;;;6.97;1.70;;;9.80;99.90;;;;;;7374405;19;20040;-64
2024/01/18 12:21:10;;;;;;;4.43;1.60;;;10.60;99.90;;;;;;7379176;19;20046;-64
2024/01/18 12:23:36;;;;;;;7.28;2.03;;;10.90;99.90;;;;;;7375602;19;20380;-65
2024/01/18 12:26:06;;;;;;;8.07;3.20;;;11.20;99.90;;;;;;7379908;19;20022;-64
2024/01/18 12:28:32;;;;;;;4.57;1.50;;;10.90;99.90;;;;;;7377532;19;20027;-63
2024/01/18 12:31:01;;;;;;;8.60;2.92;;;11.20;99.90;;;;;;7375476;19;20014;-62
2024/01/18 12:33:31;;;;;;;6.47;1.83;;;11.70;99.90;;;;;;7377475;19;20038;-65
2024/01/18 12:35:58;;;;;;;5.15;2.08;;;11.70;99.90;;;;;;7382428;19;20023;-65
2024/01/18 12:38:25;;;;;;;5.45;2.00;;;12.20;99.90;;;;;;7383081;19;20021;-65
2024/01/18 12:40:51;;;;;;;2.95;1.30;;;12.50;99.90;;;;;;7384029;19;20030;-65
2024/01/18 12:43:18;;;;;;;6.13;2.80;;;12.80;99.80;;;;;;7377236;19;21213;-65
2024/01/18 12:45:50;;;;;;;4.45;1.20;;;12.60;96.20;;;;;;7382005;19;20022;-65
2024/01/18 12:48:17;;;;;;;4.05;1.10;;;12.20;90.80;;;;;;7384885;19;20882;-66
2024/01/18 12:50:44;;;;;;;3.80;1.08;;;11.80;95.10;;;;;;7379618;19;20030;-66
2024/01/18 12:53:10;;;;;;;5.75;1.63;;;11.20;92.90;;;;;;7382954;19;20017;-66
2024/01/18 12:55:37;;;;;;;6.25;2.03;;;11.10;94.40;;;;;;7382456;19;20021;-65
2024/01/18 12:58:04;;;;;;;3.58;1.10;;;11.20;96.90;;;;;;7382471;19;20026;-66
2024/01/18 13:00:33;;;;;;;4.07;1.85;;;11.30;92.30;;;;;;7382183;19;20021;-66
2024/01/18 13:03:12;;;;;;;5.60;1.58;;;11.70;95.70;;;;;;7382291;19;20975;-66
2024/01/18 13:05:43;;;;;;;5.10;1.98;;;12.00;96.00;;;;;;7384977;19;20010;-66
2024/01/18 13:08:10;;;;;;;3.53;1.25;;;12.30;93.30;;;;;;7386586;19;20018;-62
2024/01/18 13:10:36;;;;;;;5.28;1.10;;;12.30;94.60;;;;;;7376622;19;20025;-62
2024/01/18 13:13:06;;;;;;;4.38;0.98;;;12.50;93.60;;;;;;7379189;19;20094;-62
2024/01/18 13:15:32;;;;;;;1.88;0.60;;;12.90;92.80;;;;;;7382835;19;20511;-66